Spittal an der Drau, Austria
Current Conditions -  °F | °C
As of 7:50 AM on Tuesday 21 Oct 2014 (Local Time) from LOWK Reporting Station
Light Fog Light Fog  
Wind Chill: 50°   Ceiling: 200
Heat Index: 50°   Visibility: 1.2mi
Dew Point: 50°   Wind: 3mph
Humidity: 100%   Direction: 330°NNW
Pressure: 29.94"   Gusts: NA
Location:  46.8°N, 13.5°E
Report Text: LOWK 210550Z 33003KT 2000 0400N R10/P1500N R28/P1500N BCFG FEW001 BKN002 BKN150 10/10 Q1014 BECMG 4000 BR SCT002 SCT150
Loading
Personal Weather Stations






























Interactive Weather Map
Tropical Storm Tracking
New forecast layout! Learn more

10-Day Weather Forecast

Advertisements
Track Severe Weather on mobile